Terminal Aerodrome Forecast
Issued by NWS

Home | Current Version | Previous Version | Text Only | Print | Product List | Glossary On
Versions: 1 2 3 4 5 6 7 8 9 10 11 12 13 14 15 16 17 18 19 20 21 22 23 24 25 26
000
FTUS45 KGJT 061744
TAFDRO
TAF
KDRO 061744Z 0618/0718 15015G24KT P6SM FEW080 SCT110
     FM061900 15012G20KT P6SM VCTS SCT080 BKN110CB
     FM062200 18016G27KT P6SM VCTS SCT080 BKN110CB
     FM070100 21014G25KT P6SM BKN110
     FM070600 VRB03KT P6SM BKN100=

USA.gov is the U.S. government's official web portal to all federal, state and local government web resources and services.